Kezdőlap
METAR-TAF:

METAR-TAF

Repülőterek :

Langlade County Airport

Antigo, Wisconsin, Amerikai Egyesült Államok

földrajzi szélesség: 45-09-15N, földrajzi hosszúság: 89-06-39W, magasság: 464 m

Jelenlegi meteorológiai megfigyelések

A jelentés 19 perccel ezelõtt készült, 11:55 UTC
Északnyugati szél 3 kt
Hőmérséklet 0°C
Páratartalom 100%
Légköri nyomás 1017 hPa
Látótávolság: 16.1 km
Szórványos felhőzet 9500 lábon

METAR: KAIG 231155Z AUTO 31003KT 10SM SCT095 00/00 A3003 RMK AO2 T00001001 10020 20000

Idő: 07:14 (12:14 UTC)


TAF: hiányzik

Meteorológiai megfigyelések és előrejelzések több, mint 4000 repülőtéren (METAR és TAF jelentéseket).

A térképen piros és sárga pontok jelzik az elérhető meteorológiai állomásokat.

Mozgassa az egeret a pont fölött, hogy megjelenjen az állomás neve.

Azután kattintson az időjárási megfigyelések és előrejelzések megtekintéséhez.

A térkép megváltoztatása: kattintson a fekete keresztel jelölt zöld gombra ráközelítéshez, a vonallal jelölt zöld gombra távolításhoz, vagy a zöld nyilakra a szomszédos térképek eléréséhez.


METAR-TAF: